createdAt,value
2022-08-27T05:22:27.839Z,7.63
2022-08-27T05:25:13.822Z,7.97
2022-08-27T05:27:59.700Z,6.80
2022-08-27T05:30:49.287Z,6.30
2022-08-27T05:33:42.683Z,6.82
2022-08-27T05:36:32.039Z,5.25
2022-08-27T05:39:18.039Z,5.40
2022-08-27T05:42:03.952Z,5.72
2022-08-27T05:44:49.869Z,6.45
2022-08-27T05:47:37.522Z,5.55
2022-08-27T05:50:30.474Z,6.22
2022-08-27T05:53:16.198Z,6.38
2022-08-27T05:56:02.228Z,5.43
2022-08-27T05:59:08.672Z,6.03
2022-08-27T06:01:55.983Z,5.18
2022-08-27T06:04:41.806Z,5.35
2022-08-27T06:07:27.874Z,5.05
2022-08-27T06:10:13.889Z,4.93
2022-08-27T06:12:59.850Z,5.20
2022-08-27T06:15:46.000Z,5.97
2022-08-27T06:18:32.790Z,5.18
2022-08-27T06:21:24.282Z,5.13
2022-08-27T06:24:13.050Z,4.82
2022-08-27T06:26:59.593Z,5.00
2022-08-27T06:29:46.103Z,4.55
2022-08-27T06:32:32.077Z,4.32
2022-08-27T06:35:19.003Z,5.65
2022-08-27T06:38:04.980Z,4.30
2022-08-27T06:40:51.617Z,4.07
2022-08-27T06:43:39.158Z,4.40
2022-08-27T06:46:27.947Z,4.80
2022-08-27T06:49:14.180Z,4.80
2022-08-27T06:52:00.155Z,4.68
2022-08-27T06:54:46.355Z,4.70
2022-08-27T06:57:32.265Z,4.63
2022-08-27T07:00:18.117Z,4.35
2022-08-27T07:03:05.645Z,4.43
2022-08-27T07:05:51.703Z,4.15
2022-08-27T07:08:38.553Z,4.65
2022-08-27T07:11:24.950Z,4.13
2022-08-27T07:14:10.996Z,4.32
2022-08-27T07:16:56.975Z,4.80
2022-08-27T07:19:42.987Z,4.65
2022-08-27T07:22:29.986Z,5.10
2022-08-27T07:25:20.968Z,4.32
2022-08-27T07:28:06.948Z,4.25
2022-08-27T07:30:53.615Z,3.90
2022-08-27T07:33:42.135Z,4.75
2022-08-27T07:36:34.365Z,4.10
2022-08-27T07:39:20.299Z,4.63
2022-08-27T07:42:24.735Z,4.13
2022-08-27T07:45:10.979Z,4.65
2022-08-27T07:47:56.669Z,4.10
2022-08-27T07:50:43.760Z,4.57
2022-08-27T07:53:29.964Z,4.05
2022-08-27T07:56:16.342Z,4.00
2022-08-27T07:59:02.429Z,3.92
2022-08-27T08:01:49.189Z,3.38
2022-08-27T08:04:35.914Z,3.83
2022-08-27T08:07:21.973Z,3.83
2022-08-27T08:10:10.207Z,4.25
2022-08-27T08:12:56.095Z,3.97
2022-08-27T08:15:45.138Z,3.83
2022-08-27T08:21:11.676Z,4.35
2022-08-27T08:23:57.578Z,4.07
2022-08-27T08:26:44.384Z,3.40
2022-08-27T08:29:30.347Z,4.72
2022-08-27T08:32:17.382Z,3.30
2022-08-27T08:35:04.789Z,4.05
2022-08-27T08:37:50.788Z,3.55
2022-08-27T08:40:41.336Z,2.92
2022-08-27T08:43:37.012Z,3.50
2022-08-27T08:46:33.294Z,3.15
2022-08-27T08:49:34.788Z,3.42
2022-08-27T08:52:40.699Z,2.92
2022-08-27T08:55:34.353Z,3.00
2022-08-27T12:47:50.867Z,7.45
2022-08-27T12:50:38.469Z,5.47
2022-08-27T12:53:43.617Z,5.60
2022-08-27T12:56:46.367Z,5.05
2022-08-27T13:00:01.928Z,22.10
2022-08-27T13:03:16.026Z,5.30
2022-08-27T13:06:01.879Z,5.10
2022-08-27T17:33:05.311Z,6.22
2022-08-27T17:35:51.513Z,6.13
2022-08-27T17:38:38.894Z,6.30
2022-08-27T17:41:36.744Z,7.43
2022-08-27T17:44:32.973Z,7.25
2022-08-27T17:47:20.801Z,7.32
2022-08-27T17:50:06.815Z,13.82
2022-08-27T17:52:52.565Z,7.88
2022-08-27T17:55:38.483Z,7.53
2022-08-27T17:58:25.364Z,6.55
2022-08-27T18:01:11.383Z,7.50
2022-08-27T18:03:58.449Z,7.07
2022-08-27T18:06:44.692Z,6.60
2022-08-27T18:09:30.513Z,7.18
2022-08-27T18:12:19.179Z,7.70
2022-08-27T18:15:24.207Z,9.00
2022-08-27T18:18:11.778Z,12.55
2022-08-27T18:20:58.493Z,11.35
2022-08-27T18:23:44.665Z,18.10
2022-08-27T18:26:31.627Z,45.15
2022-08-27T18:29:17.894Z,10.95
2022-08-27T18:32:05.133Z,16.20
2022-08-27T18:34:51.820Z,12.82
2022-08-27T18:37:37.759Z,10.90
2022-08-27T18:40:28.537Z,11.07
2022-08-27T18:43:15.819Z,8.73
2022-08-27T18:46:04.004Z,8.82
2022-08-27T18:48:50.164Z,10.57
2022-08-27T18:51:37.361Z,14.15
2022-08-27T18:54:24.933Z,14.38
2022-08-27T18:57:12.524Z,25.35
2022-08-27T18:59:59.140Z,29.05
2022-08-27T19:02:50.043Z,34.08
2022-08-27T19:05:37.898Z,29.77
2022-08-27T19:08:24.770Z,23.88
2022-08-27T19:11:11.101Z,17.02
2022-08-27T19:13:57.525Z,18.17
2022-08-27T19:16:50.688Z,27.20
2022-08-27T19:19:36.589Z,23.90
2022-08-27T19:22:22.731Z,15.00
2022-08-27T19:25:08.618Z,13.10
2022-08-27T19:27:55.120Z,11.98
2022-08-27T19:30:41.070Z,13.35
2022-08-27T19:33:26.787Z,11.13
2022-08-27T19:36:15.999Z,11.50
2022-08-27T19:39:02.346Z,51.35
2022-08-27T19:41:48.820Z,20.70
2022-08-27T19:44:34.671Z,14.35
2022-08-27T19:47:25.762Z,15.10
2022-08-27T19:50:19.138Z,15.15
2022-08-27T19:53:05.450Z,18.80
2022-08-27T19:55:52.204Z,14.38
2022-08-27T19:58:37.799Z,14.43
2022-08-27T20:01:23.502Z,15.50
2022-08-27T20:04:09.170Z,16.40
2022-08-27T20:06:55.083Z,16.50
2022-08-27T20:09:42.470Z,17.35
2022-08-27T20:12:28.230Z,18.27
2022-08-27T20:15:14.252Z,16.35
2022-08-27T20:18:01.547Z,14.70
2022-08-27T20:20:47.386Z,14.20
2022-08-27T20:23:33.418Z,14.35
2022-08-27T20:26:20.180Z,14.82
2022-08-27T20:29:11.381Z,13.98
2022-08-27T20:32:01.858Z,20.15
2022-08-27T20:34:47.633Z,18.55
2022-08-27T20:37:33.668Z,20.15
2022-08-27T20:40:31.449Z,19.10
2022-08-27T20:43:18.838Z,17.65
2022-08-27T20:46:05.315Z,17.60
2022-08-27T20:48:51.713Z,18.15
2022-08-27T20:52:02.098Z,21.48
2022-08-27T20:54:43.453Z,17.75
2022-08-27T20:57:29.641Z,16.63
2022-08-27T21:00:21.337Z,18.45
2022-08-27T21:03:12.754Z,22.17
2022-08-27T21:05:58.420Z,27.33
2022-08-27T21:08:44.368Z,27.75
2022-08-27T21:11:30.235Z,26.45
2022-08-27T21:14:16.062Z,25.85
2022-08-27T21:17:02.268Z,20.92
2022-08-27T21:19:48.073Z,24.88
2022-08-27T21:22:34.452Z,17.20
2022-08-27T21:25:20.194Z,22.90
2022-08-27T21:28:07.516Z,20.83
2022-08-27T21:30:53.707Z,20.05
2022-08-27T21:33:39.801Z,20.38
2022-08-27T21:36:25.731Z,19.85
2022-08-27T21:39:11.786Z,20.17
2022-08-27T21:41:57.801Z,20.08
2022-08-27T21:44:43.922Z,19.63
2022-08-27T21:47:30.158Z,21.27
2022-08-27T21:50:16.099Z,19.00
2022-08-27T21:53:02.028Z,18.00
2022-08-27T21:55:51.401Z,19.85
2022-08-27T21:58:37.739Z,20.33
2022-08-27T22:01:23.370Z,19.45
2022-08-27T22:04:09.066Z,18.25
2022-08-27T22:06:54.958Z,20.75
2022-08-27T22:09:40.869Z,23.42
2022-08-27T22:12:26.926Z,21.67
2022-08-27T22:15:12.886Z,22.77
2022-08-27T22:17:59.221Z,22.40
2022-08-27T22:20:45.287Z,21.85
2022-08-27T22:23:31.463Z,21.98
2022-08-27T22:26:17.630Z,20.83
2022-08-27T22:29:04.970Z,21.30
2022-08-27T22:31:51.093Z,20.50
2022-08-27T22:34:36.839Z,21.17
2022-08-27T22:37:22.886Z,22.65
2022-08-27T22:40:19.182Z,21.65
2022-08-27T22:43:06.651Z,21.10
2022-08-27T22:45:52.478Z,22.83
2022-08-27T22:48:39.101Z,22.65
2022-08-27T22:51:24.884Z,25.30
2022-08-27T22:54:10.720Z,24.58
2022-08-27T22:56:56.271Z,24.95
2022-08-27T22:59:42.271Z,25.73
2022-08-27T23:02:28.468Z,26.90
2022-08-27T23:05:16.074Z,26.55
2022-08-27T23:08:03.865Z,26.02
2022-08-27T23:10:51.807Z,25.60
2022-08-27T23:13:38.809Z,26.33
2022-08-27T23:16:24.753Z,24.92
2022-08-27T23:19:11.416Z,21.13
2022-08-27T23:21:58.429Z,23.30
2022-08-27T23:25:03.013Z,22.25
2022-08-27T23:27:48.675Z,24.33
2022-08-27T23:30:35.436Z,28.10
2022-08-27T23:33:21.367Z,25.23
2022-08-27T23:36:07.336Z,27.42
2022-08-27T23:38:53.023Z,22.63
2022-08-27T23:41:38.921Z,21.88
2022-08-27T23:44:28.497Z,22.38
2022-08-27T23:47:15.151Z,21.08
2022-08-27T23:50:01.435Z,22.50
2022-08-27T23:52:47.115Z,23.63
2022-08-27T23:55:33.840Z,23.00
2022-08-27T23:58:19.415Z,22.95
